createdAt,value
2018-07-31T00:02:13.387Z,50.81
2018-07-31T00:04:42.695Z,50.21
2018-07-31T00:07:11.207Z,50.63
2018-07-31T00:09:41.339Z,50.84
2018-07-31T00:12:09.766Z,50.77
2018-07-31T00:14:38.353Z,51.79
2018-07-31T00:17:06.778Z,49.04
2018-07-31T00:19:35.299Z,50.46
2018-07-31T00:22:03.899Z,49.73
2018-07-31T00:24:32.444Z,50.73
2018-07-31T00:27:00.983Z,50.04
2018-07-31T00:29:29.420Z,50.79
2018-07-31T00:31:58.931Z,49.51
2018-07-31T00:34:27.504Z,50.25
2018-07-31T00:36:56.254Z,50.84
2018-07-31T00:39:24.702Z,49.42
2018-07-31T00:41:53.239Z,49.86
2018-07-31T00:44:22.744Z,49.57
2018-07-31T00:46:51.331Z,49.65
2018-07-31T00:49:19.750Z,49.53
2018-07-31T00:51:48.278Z,49.57
2018-07-31T00:54:16.695Z,50.46
2018-07-31T00:56:45.189Z,49.89
2018-07-31T00:59:13.925Z,51.25
2018-07-31T01:01:43.283Z,50.81
2018-07-31T01:04:12.976Z,51.42
2018-07-31T01:06:42.255Z,51.80
2018-07-31T01:09:11.899Z,51.44
2018-07-31T01:11:40.927Z,50.18
2018-07-31T01:14:10.186Z,50.22
2018-07-31T01:16:40.483Z,49.82
2018-07-31T01:19:09.924Z,49.02
2018-07-31T01:21:38.458Z,49.61
2018-07-31T01:24:08.517Z,49.83
2018-07-31T01:26:37.551Z,49.09
2018-07-31T01:29:06.357Z,49.01
2018-07-31T01:31:34.758Z,49.66
2018-07-31T01:34:03.293Z,49.40
2018-07-31T01:36:31.838Z,49.99
2018-07-31T01:39:00.641Z,49.26
2018-07-31T01:41:30.078Z,49.87
2018-07-31T01:43:59.794Z,49.21
2018-07-31T01:46:28.691Z,49.53
2018-07-31T01:48:57.172Z,50.33
2018-07-31T01:51:25.622Z,49.81
2018-07-31T01:53:54.380Z,50.64
2018-07-31T01:56:23.600Z,49.36
2018-07-31T01:58:52.560Z,50.62
2018-07-31T02:01:21.313Z,50.68
2018-07-31T02:03:49.738Z,51.92
2018-07-31T02:06:18.339Z,52.03
2018-07-31T02:08:46.900Z,53.47
2018-07-31T02:11:15.905Z,54.84
2018-07-31T02:13:44.419Z,53.01
2018-07-31T02:16:12.826Z,54.99
2018-07-31T02:18:41.512Z,54.55
2018-07-31T02:21:10.033Z,55.34
2018-07-31T02:23:38.458Z,55.72
2018-07-31T02:26:06.913Z,55.48
2018-07-31T02:28:37.620Z,56.11
2018-07-31T02:31:06.414Z,55.56
2018-07-31T02:33:35.071Z,55.77
2018-07-31T02:36:04.318Z,55.87
2018-07-31T02:38:35.104Z,56.79
2018-07-31T02:41:04.859Z,56.92
2018-07-31T02:43:33.454Z,55.88
2018-07-31T02:46:01.976Z,55.57
2018-07-31T02:48:30.459Z,56.47
2018-07-31T02:50:58.977Z,55.37
2018-07-31T02:53:27.472Z,55.66
2018-07-31T02:55:55.961Z,54.53
2018-07-31T02:58:24.468Z,54.79
2018-07-31T03:00:52.939Z,55.05
2018-07-31T03:03:21.493Z,55.48
2018-07-31T03:05:49.908Z,56.45
2018-07-31T03:08:19.343Z,55.07
2018-07-31T03:10:48.019Z,55.65
2018-07-31T03:13:16.728Z,55.44
2018-07-31T03:15:45.909Z,55.75
2018-07-31T03:18:15.448Z,55.18
2018-07-31T03:20:44.050Z,54.89
2018-07-31T03:23:12.518Z,54.52
2018-07-31T03:25:41.586Z,55.77
2018-07-31T03:28:10.850Z,54.45
2018-07-31T03:30:39.508Z,55.33
2018-07-31T03:33:09.086Z,55.67
2018-07-31T03:35:37.809Z,54.94
2018-07-31T03:38:06.249Z,54.83
2018-07-31T03:40:34.847Z,55.47
2018-07-31T03:43:04.278Z,54.83
2018-07-31T03:45:32.791Z,55.99
2018-07-31T03:48:01.329Z,55.65
2018-07-31T03:50:29.878Z,55.74
2018-07-31T03:52:59.309Z,54.40
2018-07-31T03:55:28.383Z,55.48
2018-07-31T03:58:00.680Z,55.11
2018-07-31T04:00:29.665Z,54.94
2018-07-31T04:02:58.319Z,55.02
2018-07-31T04:05:26.821Z,54.92
2018-07-31T04:07:55.403Z,55.14
2018-07-31T04:10:23.962Z,55.06
2018-07-31T04:12:52.682Z,55.40
2018-07-31T04:15:21.232Z,55.98
2018-07-31T04:17:53.161Z,54.87
2018-07-31T04:20:22.947Z,54.33
2018-07-31T04:22:55.613Z,54.82
2018-07-31T04:25:24.739Z,55.54
2018-07-31T04:27:55.636Z,55.18
2018-07-31T04:30:25.328Z,54.92
2018-07-31T04:32:53.779Z,54.93
2018-07-31T04:35:23.105Z,55.22
2018-07-31T04:37:52.035Z,55.69
2018-07-31T04:40:20.533Z,55.05
2018-07-31T04:42:49.052Z,54.38
2018-07-31T04:45:17.637Z,55.10
2018-07-31T04:47:46.989Z,55.18
2018-07-31T04:50:16.482Z,55.30
2018-07-31T04:52:49.088Z,55.54
2018-07-31T04:55:19.829Z,54.42
2018-07-31T04:57:49.300Z,54.85
2018-07-31T05:00:18.480Z,53.36
2018-07-31T05:02:47.002Z,53.92
2018-07-31T05:05:17.429Z,53.61
2018-07-31T05:07:46.704Z,54.36
2018-07-31T05:10:17.092Z,53.60
2018-07-31T05:12:46.083Z,53.38
2018-07-31T05:15:16.864Z,53.07
2018-07-31T05:17:46.476Z,53.39
2018-07-31T05:20:16.008Z,53.62
2018-07-31T05:22:45.057Z,53.63
2018-07-31T05:25:17.136Z,53.37
2018-07-31T05:27:45.596Z,53.55
2018-07-31T05:30:16.223Z,52.67
2018-07-31T05:32:44.826Z,52.26
2018-07-31T05:35:13.450Z,52.92
2018-07-31T05:37:41.939Z,51.39
2018-07-31T05:40:11.842Z,51.92
2018-07-31T05:42:40.304Z,51.44
2018-07-31T05:45:10.472Z,51.14
2018-07-31T05:47:40.109Z,51.36
2018-07-31T05:50:10.261Z,51.06
2018-07-31T05:52:39.563Z,51.74
2018-07-31T05:55:08.277Z,50.92
2018-07-31T05:57:38.403Z,51.05
2018-07-31T06:00:08.361Z,50.02
2018-07-31T06:02:37.050Z,51.01
2018-07-31T06:05:06.452Z,50.14
2018-07-31T06:07:35.867Z,50.59
2018-07-31T06:10:06.448Z,50.59
2018-07-31T06:12:35.188Z,51.16
2018-07-31T06:15:03.798Z,50.08
2018-07-31T06:17:32.391Z,50.38
2018-07-31T06:20:01.590Z,49.72
2018-07-31T06:22:30.034Z,50.11
2018-07-31T06:25:00.021Z,51.21
2018-07-31T06:27:28.507Z,50.61
2018-07-31T06:29:59.728Z,50.59
2018-07-31T06:32:31.248Z,50.23
2018-07-31T06:35:00.157Z,49.04
2018-07-31T06:37:28.659Z,49.52
2018-07-31T06:39:57.799Z,49.00
2018-07-31T06:42:28.259Z,49.32
2018-07-31T06:44:58.026Z,49.75
2018-07-31T06:47:27.059Z,48.60
2018-07-31T06:49:55.583Z,48.51
2018-07-31T06:52:24.960Z,48.83
2018-07-31T06:54:54.977Z,48.41
2018-07-31T06:58:54.727Z,48.25
2018-07-31T07:01:23.876Z,48.50
2018-07-31T07:03:52.870Z,48.15
2018-07-31T07:06:22.029Z,49.00
2018-07-31T07:08:50.591Z,48.44
2018-07-31T07:11:21.959Z,48.30
2018-07-31T07:13:52.407Z,48.32
2018-07-31T07:16:22.797Z,46.97
2018-07-31T07:18:59.831Z,47.92
2018-07-31T07:21:32.222Z,47.46
2018-07-31T07:24:00.649Z,47.57
2018-07-31T07:26:30.739Z,47.30
2018-07-31T07:29:25.097Z,47.50
2018-07-31T07:31:53.640Z,47.41
2018-07-31T07:34:22.108Z,47.86
2018-07-31T07:36:52.232Z,48.14
2018-07-31T07:39:23.097Z,47.86
2018-07-31T07:41:52.180Z,47.29
2018-07-31T07:44:21.452Z,47.71
2018-07-31T07:46:50.138Z,46.54
2018-07-31T07:49:18.684Z,46.21
2018-07-31T07:51:47.274Z,47.02
2018-07-31T07:54:16.340Z,44.87
2018-07-31T07:56:44.899Z,45.79
2018-07-31T07:59:13.472Z,44.73
2018-07-31T08:01:42.251Z,44.93
2018-07-31T08:04:10.812Z,45.44
2018-07-31T08:06:39.178Z,45.22
2018-07-31T08:09:10.286Z,45.03
2018-07-31T08:11:38.748Z,44.73
2018-07-31T08:14:07.451Z,45.13
2018-07-31T08:16:36.200Z,44.91
2018-07-31T08:19:05.572Z,44.18
2018-07-31T08:21:34.264Z,43.96
2018-07-31T08:24:02.789Z,44.14
2018-07-31T08:26:31.498Z,43.91
2018-07-31T08:28:59.956Z,42.63
2018-07-31T08:31:28.385Z,42.59
2018-07-31T08:33:57.727Z,42.96
2018-07-31T08:36:26.311Z,42.00
2018-07-31T08:38:54.817Z,42.15
2018-07-31T08:41:24.087Z,40.59
2018-07-31T08:43:53.647Z,40.62
2018-07-31T08:46:22.373Z,41.37
2018-07-31T08:48:52.007Z,40.53
2018-07-31T08:51:24.498Z,40.00
2018-07-31T08:53:52.986Z,40.42
2018-07-31T08:56:21.482Z,40.41
2018-07-31T08:58:49.869Z,40.03
2018-07-31T09:01:20.633Z,41.07
2018-07-31T09:03:49.056Z,41.51
2018-07-31T09:06:18.720Z,41.19
2018-07-31T09:08:47.287Z,39.23
2018-07-31T09:11:15.678Z,39.73
2018-07-31T09:13:44.253Z,39.16
2018-07-31T09:16:12.772Z,39.87
2018-07-31T09:18:42.390Z,39.53
2018-07-31T09:21:11.846Z,39.24
2018-07-31T09:23:40.741Z,38.28
2018-07-31T09:26:09.240Z,38.43
2018-07-31T09:28:37.680Z,38.64
2018-07-31T09:31:11.381Z,38.13
2018-07-31T09:33:39.817Z,37.77
2018-07-31T09:36:08.195Z,37.87
2018-07-31T09:38:36.627Z,38.16
2018-07-31T09:41:05.365Z,38.46
2018-07-31T09:43:34.761Z,36.78
2018-07-31T09:46:03.986Z,37.12
2018-07-31T09:48:32.415Z,37.71
2018-07-31T09:51:01.681Z,37.51
2018-07-31T09:53:30.133Z,37.36
2018-07-31T09:55:58.831Z,37.77
2018-07-31T09:58:27.528Z,36.57
2018-07-31T10:01:02.187Z,36.05
2018-07-31T10:03:30.801Z,35.40
2018-07-31T10:05:59.275Z,35.39
2018-07-31T10:08:27.700Z,35.22
2018-07-31T10:10:56.474Z,34.50
2018-07-31T10:13:25.439Z,35.22
2018-07-31T10:15:53.886Z,35.01
2018-07-31T10:18:22.463Z,35.54
2018-07-31T10:20:52.567Z,35.70
2018-07-31T10:23:21.024Z,35.36
2018-07-31T10:25:49.581Z,36.22
2018-07-31T10:28:19.036Z,36.97
2018-07-31T10:30:49.298Z,36.67
2018-07-31T10:33:18.389Z,37.40
2018-07-31T10:35:46.850Z,36.86
2018-07-31T10:38:15.326Z,37.03
2018-07-31T10:40:43.832Z,37.04
2018-07-31T10:43:13.099Z,37.43
2018-07-31T10:45:42.495Z,36.46
2018-07-31T10:48:11.836Z,36.82
2018-07-31T10:50:40.250Z,36.57
2018-07-31T10:53:08.869Z,37.24
2018-07-31T10:55:37.723Z,37.27
2018-07-31T10:58:06.636Z,36.21
2018-07-31T11:00:35.383Z,36.74
2018-07-31T11:03:09.836Z,36.55
2018-07-31T11:05:38.357Z,35.39
2018-07-31T11:08:07.410Z,34.73
2018-07-31T11:10:36.440Z,34.21
2018-07-31T11:13:04.975Z,35.41
2018-07-31T11:15:33.351Z,34.87
2018-07-31T11:18:02.597Z,35.48
2018-07-31T11:20:31.274Z,34.58
2018-07-31T11:22:59.811Z,33.49
2018-07-31T11:25:28.324Z,34.40
2018-07-31T11:27:56.873Z,33.85
2018-07-31T11:30:25.369Z,34.16
2018-07-31T11:32:54.103Z,33.74
2018-07-31T11:35:23.376Z,33.67
2018-07-31T11:37:51.880Z,35.27
2018-07-31T11:40:21.323Z,34.46
2018-07-31T11:42:49.753Z,33.82
2018-07-31T11:45:18.235Z,33.82
2018-07-31T11:47:48.531Z,33.44
2018-07-31T11:50:17.249Z,32.72
2018-07-31T11:52:46.159Z,32.07
2018-07-31T11:55:14.628Z,30.49
2018-07-31T11:57:44.215Z,31.55
2018-07-31T12:00:14.314Z,31.00
2018-07-31T12:02:43.345Z,30.28
2018-07-31T12:05:13.134Z,31.56
2018-07-31T12:07:41.908Z,31.51
2018-07-31T12:10:11.415Z,31.17
2018-07-31T12:12:40.012Z,30.59
2018-07-31T12:15:08.803Z,29.93
2018-07-31T12:17:37.925Z,28.65
2018-07-31T12:20:06.447Z,28.07
2018-07-31T12:22:35.592Z,28.15
2018-07-31T12:25:04.169Z,28.24
2018-07-31T12:27:32.652Z,28.97
2018-07-31T12:30:01.062Z,28.93
2018-07-31T12:32:29.994Z,29.51
2018-07-31T12:34:58.587Z,29.61
2018-07-31T12:37:27.513Z,29.92
2018-07-31T12:39:56.048Z,28.51
2018-07-31T12:42:24.589Z,29.32
2018-07-31T12:44:54.343Z,28.54
2018-07-31T12:47:22.897Z,29.75
2018-07-31T12:49:51.555Z,29.46
2018-07-31T12:52:21.865Z,28.62
2018-07-31T12:54:51.594Z,29.57
2018-07-31T12:57:21.711Z,29.60
2018-07-31T12:59:50.513Z,28.99
2018-07-31T13:02:19.794Z,29.04
2018-07-31T13:04:49.100Z,29.68
2018-07-31T13:07:18.121Z,29.43
2018-07-31T13:09:47.204Z,28.00
2018-07-31T13:12:15.788Z,28.93
2018-07-31T13:14:44.679Z,28.35
2018-07-31T13:17:14.759Z,29.29
2018-07-31T13:19:43.315Z,29.06
2018-07-31T13:22:11.822Z,28.69
2018-07-31T13:24:40.198Z,27.99
2018-07-31T13:27:08.696Z,26.63
2018-07-31T13:29:38.181Z,25.42
2018-07-31T13:32:07.765Z,26.64
2018-07-31T13:34:36.393Z,25.82
2018-07-31T13:37:05.115Z,26.39
2018-07-31T13:39:33.788Z,26.36
2018-07-31T13:42:02.304Z,25.86
2018-07-31T13:44:30.817Z,24.49
2018-07-31T13:46:59.499Z,24.86
2018-07-31T13:49:28.118Z,25.03
2018-07-31T13:51:57.191Z,24.26
2018-07-31T13:54:25.850Z,24.60
2018-07-31T13:56:55.175Z,24.94
2018-07-31T13:59:24.166Z,24.91
2018-07-31T14:01:53.268Z,25.59
2018-07-31T14:04:22.320Z,26.17
2018-07-31T14:06:51.590Z,26.19
2018-07-31T14:09:20.071Z,26.24
2018-07-31T14:11:48.616Z,26.25
2018-07-31T14:14:17.821Z,26.05
2018-07-31T14:16:47.285Z,26.92
2018-07-31T14:19:16.203Z,26.83
2018-07-31T14:21:45.518Z,27.44
2018-07-31T14:24:14.177Z,27.03
2018-07-31T14:26:43.668Z,27.14
2018-07-31T14:29:13.786Z,27.42
2018-07-31T14:31:43.069Z,27.07
2018-07-31T14:34:11.969Z,26.96
2018-07-31T14:36:40.896Z,27.67
2018-07-31T14:39:11.181Z,27.98
2018-07-31T14:41:40.582Z,28.14
2018-07-31T14:44:09.261Z,28.01
2018-07-31T14:46:39.829Z,28.00
2018-07-31T14:49:08.946Z,28.72
2018-07-31T14:51:37.968Z,30.04
2018-07-31T14:54:07.250Z,29.37
2018-07-31T14:56:35.770Z,27.95
2018-07-31T14:59:05.060Z,29.07
2018-07-31T15:01:35.442Z,28.81
2018-07-31T15:04:04.025Z,28.70
2018-07-31T15:06:32.780Z,28.09
2018-07-31T15:09:01.451Z,28.10
2018-07-31T15:11:30.961Z,26.62
2018-07-31T15:14:00.462Z,26.92
2018-07-31T15:16:29.908Z,27.21
2018-07-31T15:18:58.433Z,26.92
2018-07-31T15:21:29.546Z,26.42
2018-07-31T15:23:58.077Z,26.16
2018-07-31T15:26:31.716Z,26.49
2018-07-31T15:29:00.567Z,26.86
2018-07-31T15:31:29.129Z,26.94
2018-07-31T15:33:59.335Z,27.66
2018-07-31T15:36:28.910Z,28.23
2018-07-31T15:38:57.868Z,27.09
2018-07-31T15:41:26.833Z,26.72
2018-07-31T15:43:55.901Z,25.97
2018-07-31T15:46:24.997Z,26.80
2018-07-31T15:48:54.540Z,27.08
2018-07-31T15:51:24.105Z,26.03
2018-07-31T15:53:52.968Z,26.16
2018-07-31T15:56:22.514Z,27.24
2018-07-31T15:58:53.312Z,26.03
2018-07-31T16:01:21.981Z,26.68
2018-07-31T16:03:51.225Z,26.24
2018-07-31T16:06:20.822Z,26.23
2018-07-31T16:08:50.429Z,26.33
2018-07-31T16:11:24.677Z,25.96
2018-07-31T16:13:54.194Z,26.01
2018-07-31T16:16:23.028Z,26.50
2018-07-31T16:18:53.045Z,25.35
2018-07-31T16:21:23.329Z,25.87
2018-07-31T16:23:54.027Z,26.22
2018-07-31T16:26:24.295Z,26.45
2018-07-31T16:28:52.879Z,26.49
2018-07-31T16:31:21.400Z,26.28
2018-07-31T16:33:50.345Z,25.52
2018-07-31T16:36:19.808Z,26.28
2018-07-31T16:38:48.297Z,26.23
2018-07-31T16:41:21.394Z,26.03
2018-07-31T16:43:53.277Z,26.32
2018-07-31T16:46:21.840Z,26.67
2018-07-31T16:48:51.524Z,26.78
2018-07-31T16:51:20.830Z,26.64
2018-07-31T16:53:50.001Z,27.07
2018-07-31T16:56:18.825Z,28.01
2018-07-31T16:58:48.073Z,28.71
2018-07-31T17:01:17.447Z,28.78
2018-07-31T17:03:46.864Z,28.92
2018-07-31T17:06:15.463Z,28.59
2018-07-31T17:08:44.865Z,28.43
2018-07-31T17:11:14.050Z,28.86
2018-07-31T17:13:44.624Z,29.56
2018-07-31T17:16:14.190Z,28.78
2018-07-31T17:18:44.049Z,29.27
2018-07-31T17:21:13.499Z,29.22
2018-07-31T17:23:43.562Z,29.70
2018-07-31T17:26:13.968Z,29.85
2018-07-31T17:28:43.277Z,29.46
2018-07-31T17:31:14.439Z,30.75
2018-07-31T17:33:45.166Z,31.12
2018-07-31T17:36:14.555Z,30.53
2018-07-31T17:38:44.538Z,30.13
2018-07-31T17:41:13.327Z,30.52
2018-07-31T17:43:41.820Z,30.84
2018-07-31T17:46:10.306Z,30.16
2018-07-31T17:48:39.807Z,30.03
2018-07-31T17:51:09.044Z,30.88
2018-07-31T17:53:38.128Z,31.77
2018-07-31T17:56:06.524Z,32.02
2018-07-31T17:58:37.190Z,31.68
2018-07-31T18:01:05.900Z,31.75
2018-07-31T18:03:35.091Z,30.83
2018-07-31T18:06:04.417Z,31.92
2018-07-31T18:08:32.847Z,34.98
2018-07-31T18:11:01.710Z,36.77
2018-07-31T18:13:30.694Z,38.46
2018-07-31T18:15:59.232Z,38.56
2018-07-31T18:19:57.238Z,39.14
2018-07-31T18:22:25.766Z,40.78
2018-07-31T18:24:54.179Z,40.86
2018-07-31T18:27:22.748Z,41.02
2018-07-31T18:29:53.391Z,42.25
2018-07-31T18:32:22.637Z,42.73
2018-07-31T18:34:52.793Z,42.43
2018-07-31T18:37:22.301Z,42.44
2018-07-31T18:39:51.217Z,42.94
2018-07-31T18:42:20.568Z,43.67
2018-07-31T18:44:51.706Z,44.30
2018-07-31T18:47:22.104Z,44.62
2018-07-31T18:49:54.520Z,44.74
2018-07-31T18:52:22.943Z,44.89
2018-07-31T18:54:51.669Z,44.92
2018-07-31T18:57:21.600Z,44.45
2018-07-31T18:59:50.585Z,45.43
2018-07-31T19:02:19.301Z,45.91
2018-07-31T19:04:48.031Z,45.42
2018-07-31T19:07:17.085Z,46.41
2018-07-31T19:09:46.054Z,46.66
2018-07-31T19:12:17.068Z,45.95
2018-07-31T19:14:46.334Z,46.18
2018-07-31T19:17:15.825Z,46.18
2018-07-31T19:19:46.280Z,46.75
2018-07-31T19:22:15.366Z,46.71
2018-07-31T19:24:44.226Z,47.49
2018-07-31T19:27:13.136Z,47.83
2018-07-31T19:29:42.315Z,47.98
2018-07-31T19:32:11.947Z,48.14
2018-07-31T19:34:41.162Z,47.46
2018-07-31T19:37:09.902Z,47.47
2018-07-31T19:39:38.625Z,47.74
2018-07-31T19:42:07.708Z,47.75
2018-07-31T19:44:39.652Z,48.56
2018-07-31T19:47:08.693Z,48.34
2018-07-31T19:49:39.180Z,49.58
2018-07-31T19:52:07.676Z,49.38
2018-07-31T19:54:36.362Z,48.55
2018-07-31T19:57:05.849Z,48.98
2018-07-31T19:59:34.462Z,48.95
2018-07-31T20:02:03.103Z,49.21
2018-07-31T20:04:32.770Z,49.22
2018-07-31T20:07:03.166Z,49.73
2018-07-31T20:09:32.964Z,49.97
2018-07-31T20:12:03.259Z,49.50
2018-07-31T20:14:32.330Z,49.49
2018-07-31T20:17:01.550Z,50.30
2018-07-31T20:19:31.262Z,50.61
2018-07-31T20:21:59.935Z,50.83
2018-07-31T20:24:30.604Z,50.69
2018-07-31T20:26:59.379Z,50.11
2018-07-31T20:29:28.882Z,50.03
2018-07-31T20:31:57.531Z,50.06
2018-07-31T20:34:27.046Z,50.75
2018-07-31T20:36:59.629Z,50.03
2018-07-31T20:39:29.319Z,50.38
2018-07-31T20:41:58.005Z,50.25
2018-07-31T20:44:27.862Z,49.92
2018-07-31T20:46:56.476Z,50.21
2018-07-31T20:49:26.092Z,50.77
2018-07-31T20:51:55.084Z,50.91
2018-07-31T20:54:41.126Z,51.18
2018-07-31T20:57:09.777Z,51.61
2018-07-31T20:59:38.444Z,51.57
2018-07-31T21:02:07.414Z,51.13
2018-07-31T21:04:36.369Z,50.75
2018-07-31T21:07:05.401Z,50.55
2018-07-31T21:09:33.872Z,50.84
2018-07-31T21:12:03.357Z,50.91
2018-07-31T21:14:34.195Z,50.95
2018-07-31T21:17:03.693Z,50.85
2018-07-31T21:19:32.285Z,50.84
2018-07-31T21:22:00.891Z,51.29
2018-07-31T21:24:29.566Z,50.96
2018-07-31T21:26:58.171Z,50.81
2018-07-31T21:29:28.837Z,50.86
2018-07-31T21:31:59.471Z,51.92
2018-07-31T21:34:29.186Z,51.05
2018-07-31T21:36:59.803Z,51.54
2018-07-31T21:39:29.098Z,51.25
2018-07-31T21:41:59.646Z,51.14
2018-07-31T21:44:30.080Z,50.47
2018-07-31T21:46:59.697Z,50.55
2018-07-31T21:49:29.046Z,51.18
2018-07-31T21:51:58.809Z,50.64
2018-07-31T21:54:28.134Z,50.71
2018-07-31T21:56:57.217Z,51.54
2018-07-31T21:59:27.628Z,50.10
2018-07-31T22:01:57.764Z,50.29
2018-07-31T22:04:26.323Z,50.56
2018-07-31T22:06:59.364Z,50.11
2018-07-31T22:09:33.606Z,51.30
2018-07-31T22:12:08.969Z,50.42
2018-07-31T22:14:38.140Z,51.01
2018-07-31T22:17:10.906Z,50.93
2018-07-31T22:19:40.497Z,50.45
2018-07-31T22:22:12.434Z,50.56
2018-07-31T22:24:41.183Z,51.00
2018-07-31T22:27:11.645Z,51.16
2018-07-31T22:29:41.614Z,51.42
2018-07-31T22:32:11.256Z,52.16
2018-07-31T22:34:41.268Z,51.53
2018-07-31T22:37:11.673Z,51.25
2018-07-31T22:39:40.682Z,50.92
2018-07-31T22:42:09.843Z,51.06
2018-07-31T22:44:40.185Z,51.04
2018-07-31T22:47:09.299Z,50.92
2018-07-31T22:49:39.281Z,50.82
2018-07-31T22:52:08.484Z,50.60
2018-07-31T22:54:37.590Z,50.23
2018-07-31T22:57:06.151Z,51.01
2018-07-31T22:59:36.249Z,50.49
2018-07-31T23:02:04.715Z,49.78
2018-07-31T23:04:34.011Z,49.82
2018-07-31T23:07:05.335Z,50.18
2018-07-31T23:09:34.364Z,50.78
2018-07-31T23:12:03.523Z,50.09
2018-07-31T23:14:33.252Z,50.20
2018-07-31T23:17:02.352Z,49.77
2018-07-31T23:19:30.804Z,49.59
2018-07-31T23:21:59.410Z,49.31
2018-07-31T23:24:28.035Z,48.97
2018-07-31T23:26:56.817Z,48.75
2018-07-31T23:29:25.507Z,49.69
2018-07-31T23:31:54.569Z,49.94
2018-07-31T23:34:24.291Z,49.70
2018-07-31T23:36:53.838Z,47.91
2018-07-31T23:39:24.187Z,46.87
2018-07-31T23:41:53.477Z,46.71
2018-07-31T23:44:22.503Z,46.96
2018-07-31T23:46:52.511Z,45.69
2018-07-31T23:49:21.876Z,45.44
2018-07-31T23:51:51.192Z,45.02
2018-07-31T23:54:19.862Z,44.33
2018-07-31T23:56:49.009Z,45.63
2018-07-31T23:59:18.616Z,45.01
